sensor_id;sensor_type;location;lat;lon;timestamp;pressure;altitude;pressure_sealevel;temperature;humidity
12195;BME280;27023;42.680;23.132;2022-07-09T00:01:40;92083.88;;;15.82;100.00
12195;BME280;27023;42.680;23.132;2022-07-09T00:04:07;92084.66;;;15.94;100.00
12195;BME280;27023;42.680;23.132;2022-07-09T00:06:34;92086.94;;;16.09;100.00
12195;BME280;27023;42.680;23.132;2022-07-09T00:09:00;92080.88;;;16.27;100.00
12195;BME280;27023;42.680;23.132;2022-07-09T00:11:27;92085.84;;;16.35;100.00
12195;BME280;27023;42.680;23.132;2022-07-09T00:13:54;92093.78;;;16.07;100.00
12195;BME280;27023;42.680;23.132;2022-07-09T00:16:20;92091.50;;;16.27;100.00
12195;BME280;27023;42.680;23.132;2022-07-09T00:18:48;92080.53;;;16.39;100.00
12195;BME280;27023;42.680;23.132;2022-07-09T00:21:15;92081.63;;;16.24;100.00
12195;BME280;27023;42.680;23.132;2022-07-09T00:23:42;92077.47;;;16.37;100.00
12195;BME280;27023;42.680;23.132;2022-07-09T00:26:08;92084.31;;;16.38;100.00
12195;BME280;27023;42.680;23.132;2022-07-09T00:28:35;92087.34;;;16.40;100.00
12195;BME280;27023;42.680;23.132;2022-07-09T00:31:02;92102.16;;;16.34;100.00
12195;BME280;27023;42.680;23.132;2022-07-09T00:33:28;92083.91;;;15.93;100.00
12195;BME280;27023;42.680;23.132;2022-07-09T00:35:57;92083.91;;;16.14;100.00
12195;BME280;27023;42.680;23.132;2022-07-09T00:38:23;92089.22;;;15.86;100.00
12195;BME280;27023;42.680;23.132;2022-07-09T00:40:50;92082.25;;;15.49;100.00
12195;BME280;27023;42.680;23.132;2022-07-09T00:43:18;92073.50;;;15.45;100.00
12195;BME280;27023;42.680;23.132;2022-07-09T00:45:45;92085.41;;;15.80;100.00
12195;BME280;27023;42.680;23.132;2022-07-09T00:48:11;92091.13;;;16.03;100.00
12195;BME280;27023;42.680;23.132;2022-07-09T00:50:40;92090.38;;;16.13;100.00
12195;BME280;27023;42.680;23.132;2022-07-09T00:53:09;92081.63;;;16.02;100.00
12195;BME280;27023;42.680;23.132;2022-07-09T00:55:37;92073.66;;;15.99;100.00
12195;BME280;27023;42.680;23.132;2022-07-09T00:58:04;92084.66;;;16.04;100.00
12195;BME280;27023;42.680;23.132;2022-07-09T01:00:32;92072.50;;;15.89;100.00
12195;BME280;27023;42.680;23.132;2022-07-09T01:03:00;92071.31;;;15.62;100.00
12195;BME280;27023;42.680;23.132;2022-07-09T01:05:27;92068.72;;;15.83;100.00
12195;BME280;27023;42.680;23.132;2022-07-09T01:08:00;92067.97;;;16.00;100.00
12195;BME280;27023;42.680;23.132;2022-07-09T01:10:28;92058.84;;;16.08;100.00
12195;BME280;27023;42.680;23.132;2022-07-09T01:12:55;92061.13;;;16.10;100.00
12195;BME280;27023;42.680;23.132;2022-07-09T01:15:22;92052.00;;;16.00;100.00
12195;BME280;27023;42.680;23.132;2022-07-09T01:17:49;92050.88;;;16.08;100.00
12195;BME280;27023;42.680;23.132;2022-07-09T01:20:21;92060.38;;;16.24;100.00
12195;BME280;27023;42.680;23.132;2022-07-09T01:22:48;92054.28;;;16.27;100.00
12195;BME280;27023;42.680;23.132;2022-07-09T01:25:16;92043.25;;;16.32;100.00
12195;BME280;27023;42.680;23.132;2022-07-09T01:27:43;92045.16;;;16.28;100.00
12195;BME280;27023;42.680;23.132;2022-07-09T01:30:10;92042.13;;;16.29;100.00
12195;BME280;27023;42.680;23.132;2022-07-09T01:32:37;92048.19;;;16.30;100.00
12195;BME280;27023;42.680;23.132;2022-07-09T01:35:04;92044.41;;;16.06;100.00
12195;BME280;27023;42.680;23.132;2022-07-09T01:37:33;92042.13;;;16.26;100.00
12195;BME280;27023;42.680;23.132;2022-07-09T01:39:59;92039.47;;;16.33;100.00
12195;BME280;27023;42.680;23.132;2022-07-09T01:42:26;92043.66;;;16.27;100.00
12195;BME280;27023;42.680;23.132;2022-07-09T01:44:52;92042.13;;;15.79;100.00
12195;BME280;27023;42.680;23.132;2022-07-09T01:47:19;92048.94;;;15.63;100.00
12195;BME280;27023;42.680;23.132;2022-07-09T01:49:46;92033.78;;;15.81;100.00
12195;BME280;27023;42.680;23.132;2022-07-09T01:52:12;92039.72;;;15.35;100.00
12195;BME280;27023;42.680;23.132;2022-07-09T01:54:41;92030.72;;;15.72;100.00
12195;BME280;27023;42.680;23.132;2022-07-09T01:57:08;92032.63;;;15.82;100.00
12195;BME280;27023;42.680;23.132;2022-07-09T01:59:34;92032.63;;;15.68;100.00
12195;BME280;27023;42.680;23.132;2022-07-09T02:02:01;92035.16;;;15.32;100.00
12195;BME280;27023;42.680;23.132;2022-07-09T02:04:28;92030.66;;;15.50;100.00
12195;BME280;27023;42.680;23.132;2022-07-09T02:06:54;92027.56;;;15.27;100.00
12195;BME280;27023;42.680;23.132;2022-07-09T02:09:22;92038.97;;;15.38;100.00
12195;BME280;27023;42.680;23.132;2022-07-09T02:11:50;92022.75;;;15.65;100.00
12195;BME280;27023;42.680;23.132;2022-07-09T02:14:17;92026.19;;;15.83;100.00
12195;BME280;27023;42.680;23.132;2022-07-09T02:16:43;92023.09;;;15.60;100.00
12195;BME280;27023;42.680;23.132;2022-07-09T02:19:10;92034.91;;;15.66;100.00
12195;BME280;27023;42.680;23.132;2022-07-09T02:21:37;92027.31;;;15.89;100.00
12195;BME280;27023;42.680;23.132;2022-07-09T02:24:04;92032.66;;;15.93;100.00
12195;BME280;27023;42.680;23.132;2022-07-09T02:26:31;92039.09;;;16.02;100.00
12195;BME280;27023;42.680;23.132;2022-07-09T02:28:59;92036.06;;;16.00;100.00
12195;BME280;27023;42.680;23.132;2022-07-09T02:31:26;92047.44;;;15.94;100.00
12195;BME280;27023;42.680;23.132;2022-07-09T02:33:53;92055.44;;;16.04;100.00
12195;BME280;27023;42.680;23.132;2022-07-09T02:36:20;92053.50;;;15.80;100.00
12195;BME280;27023;42.680;23.132;2022-07-09T02:38:47;92058.00;;;15.58;100.00
12195;BME280;27023;42.680;23.132;2022-07-09T02:41:13;92049.69;;;15.63;100.00
12195;BME280;27023;42.680;23.132;2022-07-09T02:43:40;92052.75;;;15.86;100.00
12195;BME280;27023;42.680;23.132;2022-07-09T02:46:09;92058.06;;;15.76;100.00
12195;BME280;27023;42.680;23.132;2022-07-09T02:48:36;92057.28;;;15.65;100.00
12195;BME280;27023;42.680;23.132;2022-07-09T02:51:03;92060.22;;;15.45;100.00
12195;BME280;27023;42.680;23.132;2022-07-09T02:53:30;92060.97;;;15.42;100.00
12195;BME280;27023;42.680;23.132;2022-07-09T02:55:57;92060.22;;;15.38;100.00
12195;BME280;27023;42.680;23.132;2022-07-09T02:58:24;92057.16;;;15.36;100.00
12195;BME280;27023;42.680;23.132;2022-07-09T03:00:50;92065.59;;;15.60;100.00
12195;BME280;27023;42.680;23.132;2022-07-09T03:03:18;92063.97;;;15.23;100.00
12195;BME280;27023;42.680;23.132;2022-07-09T03:05:45;92053.72;;;15.25;100.00
12195;BME280;27023;42.680;23.132;2022-07-09T03:08:12;92059.34;;;15.06;100.00
12195;BME280;27023;42.680;23.132;2022-07-09T03:10:39;92062.06;;;15.27;100.00
12195;BME280;27023;42.680;23.132;2022-07-09T03:13:06;92056.41;;;15.32;100.00
12195;BME280;27023;42.680;23.132;2022-07-09T03:15:32;92068.25;;;15.60;100.00
12195;BME280;27023;42.680;23.132;2022-07-09T03:17:59;92064.38;;;15.32;100.00
12195;BME280;27023;42.680;23.132;2022-07-09T03:20:27;92061.66;;;15.14;100.00
12195;BME280;27023;42.680;23.132;2022-07-09T03:22:54;92065.75;;;14.94;100.00
12195;BME280;27023;42.680;23.132;2022-07-09T03:25:21;92068.31;;;14.83;100.00
12195;BME280;27023;42.680;23.132;2022-07-09T03:27:48;92063.75;;;14.77;100.00
12195;BME280;27023;42.680;23.132;2022-07-09T03:30:15;92062.19;;;14.72;100.00
12195;BME280;27023;42.680;23.132;2022-07-09T03:32:41;92069.84;;;14.84;100.00
12195;BME280;27023;42.680;23.132;2022-07-09T03:35:08;92062.97;;;14.73;100.00
12195;BME280;27023;42.680;23.132;2022-07-09T03:37:36;92063.69;;;14.70;100.00
12195;BME280;27023;42.680;23.132;2022-07-09T03:40:03;92060.63;;;14.64;100.00
12195;BME280;27023;42.680;23.132;2022-07-09T03:42:31;92061.84;;;14.77;100.00
12195;BME280;27023;42.680;23.132;2022-07-09T03:44:58;92065.16;;;14.60;100.00
12195;BME280;27023;42.680;23.132;2022-07-09T03:47:25;92068.28;;;14.76;100.00
12195;BME280;27023;42.680;23.132;2022-07-09T03:49:51;92066.66;;;14.57;100.00
12195;BME280;27023;42.680;23.132;2022-07-09T03:52:18;92064.06;;;14.68;100.00
12195;BME280;27023;42.680;23.132;2022-07-09T03:54:46;92063.69;;;14.66;100.00
12195;BME280;27023;42.680;23.132;2022-07-09T03:57:13;92065.94;;;14.64;100.00
12195;BME280;27023;42.680;23.132;2022-07-09T03:59:39;92075.00;;;14.56;100.00
12195;BME280;27023;42.680;23.132;2022-07-09T04:02:06;92066.38;;;14.73;100.00
12195;BME280;27023;42.680;23.132;2022-07-09T04:04:33;92066.75;;;14.72;100.00
12195;BME280;27023;42.680;23.132;2022-07-09T04:06:59;92074.69;;;14.68;100.00
12195;BME280;27023;42.680;23.132;2022-07-09T04:09:26;92073.06;;;14.53;100.00
12195;BME280;27023;42.680;23.132;2022-07-09T04:11:54;92072.81;;;14.76;100.00
12195;BME280;27023;42.680;23.132;2022-07-09T04:14:21;92071.84;;;15.02;100.00
12195;BME280;27023;42.680;23.132;2022-07-09T04:16:48;92073.72;;;14.98;100.00
12195;BME280;27023;42.680;23.132;2022-07-09T04:19:14;92080.25;;;15.21;100.00
12195;BME280;27023;42.680;23.132;2022-07-09T04:21:41;92081.44;;;15.35;100.00
12195;BME280;27023;42.680;23.132;2022-07-09T04:24:08;92071.56;;;15.28;100.00
12195;BME280;27023;42.680;23.132;2022-07-09T04:26:34;92079.22;;;15.47;100.00
12195;BME280;27023;42.680;23.132;2022-07-09T04:29:02;92088.91;;;15.01;100.00
12195;BME280;27023;42.680;23.132;2022-07-09T04:31:29;92084.72;;;14.96;100.00
12195;BME280;27023;42.680;23.132;2022-07-09T04:33:56;92089.72;;;15.12;100.00
12195;BME280;27023;42.680;23.132;2022-07-09T04:36:22;92084.19;;;14.76;100.00
12195;BME280;27023;42.680;23.132;2022-07-09T04:38:49;92089.63;;;14.90;100.00
12195;BME280;27023;42.680;23.132;2022-07-09T04:41:16;92084.94;;;14.73;100.00
12195;BME280;27023;42.680;23.132;2022-07-09T04:43:42;92075.84;;;14.74;100.00
12195;BME280;27023;42.680;23.132;2022-07-09T04:46:10;92084.94;;;14.73;100.00
12195;BME280;27023;42.680;23.132;2022-07-09T04:48:37;92095.94;;;14.72;100.00
12195;BME280;27023;42.680;23.132;2022-07-09T04:51:04;92084.63;;;14.85;100.00
12195;BME280;27023;42.680;23.132;2022-07-09T04:53:31;92083.41;;;14.72;100.00
12195;BME280;27023;42.680;23.132;2022-07-09T04:55:58;92081.59;;;14.83;100.00
12195;BME280;27023;42.680;23.132;2022-07-09T04:58:24;92083.78;;;14.71;100.00
12195;BME280;27023;42.680;23.132;2022-07-09T05:00:51;92091.81;;;14.81;100.00
12195;BME280;27023;42.680;23.132;2022-07-09T05:03:19;92082.72;;;14.82;100.00
12195;BME280;27023;42.680;23.132;2022-07-09T05:05:46;92078.59;;;14.88;100.00
12195;BME280;27023;42.680;23.132;2022-07-09T05:08:13;92095.75;;;15.09;100.00
12195;BME280;27023;42.680;23.132;2022-07-09T05:10:39;92089.00;;;15.29;100.00
12195;BME280;27023;42.680;23.132;2022-07-09T05:13:06;92095.09;;;15.37;100.00
12195;BME280;27023;42.680;23.132;2022-07-09T05:15:33;92097.38;;;15.35;100.00
12195;BME280;27023;42.680;23.132;2022-07-09T05:18:00;92101.84;;;15.13;100.00
12195;BME280;27023;42.680;23.132;2022-07-09T05:20:28;92096.28;;;15.50;100.00
12195;BME280;27023;42.680;23.132;2022-07-09T05:22:55;92103.00;;;15.15;100.00
12195;BME280;27023;42.680;23.132;2022-07-09T05:25:22;92101.53;;;15.29;100.00
12195;BME280;27023;42.680;23.132;2022-07-09T05:27:48;92107.22;;;15.27;100.00
12195;BME280;27023;42.680;23.132;2022-07-09T05:30:15;92101.13;;;15.23;100.00
12195;BME280;27023;42.680;23.132;2022-07-09T05:32:43;92107.19;;;15.23;100.00
12195;BME280;27023;42.680;23.132;2022-07-09T05:35:10;92113.13;;;14.96;100.00
12195;BME280;27023;42.680;23.132;2022-07-09T05:37:42;92117.00;;;15.09;100.00
12195;BME280;27023;42.680;23.132;2022-07-09T05:40:11;92110.91;;;15.05;100.00
12195;BME280;27023;42.680;23.132;2022-07-09T05:42:38;92115.81;;;14.99;100.00
12195;BME280;27023;42.680;23.132;2022-07-09T05:45:06;92114.09;;;15.39;100.00
12195;BME280;27023;42.680;23.132;2022-07-09T05:47:32;92114.97;;;15.64;100.00
12195;BME280;27023;42.680;23.132;2022-07-09T05:49:59;92122.63;;;15.83;100.00
12195;BME280;27023;42.680;23.132;2022-07-09T05:52:26;92117.31;;;15.98;100.00
12195;BME280;27023;42.680;23.132;2022-07-09T05:54:54;92112.03;;;16.08;100.00
12195;BME280;27023;42.680;23.132;2022-07-09T05:57:21;92123.38;;;15.77;100.00
12195;BME280;27023;42.680;23.132;2022-07-09T05:59:47;92115.38;;;15.70;100.00
12195;BME280;27023;42.680;23.132;2022-07-09T06:02:14;92125.28;;;15.94;100.00
12195;BME280;27023;42.680;23.132;2022-07-09T06:04:41;92126.44;;;16.07;100.00
12195;BME280;27023;42.680;23.132;2022-07-09T06:07:08;92125.31;;;16.08;100.00
12195;BME280;27023;42.680;23.132;2022-07-09T06:09:34;92126.84;;;16.20;100.00
12195;BME280;27023;42.680;23.132;2022-07-09T06:12:04;92127.13;;;15.69;100.00
12195;BME280;27023;42.680;23.132;2022-07-09T06:14:31;92124.84;;;15.67;100.00
12195;BME280;27023;42.680;23.132;2022-07-09T06:16:58;92122.50;;;15.55;100.00
12195;BME280;27023;42.680;23.132;2022-07-09T06:19:32;92132.03;;;15.60;100.00
12195;BME280;27023;42.680;23.132;2022-07-09T06:21:58;92125.88;;;15.48;100.00
12195;BME280;27023;42.680;23.132;2022-07-09T06:24:25;92135.13;;;15.72;100.00
12195;BME280;27023;42.680;23.132;2022-07-09T06:26:52;92135.38;;;15.53;100.00
12195;BME280;27023;42.680;23.132;2022-07-09T06:29:20;92133.78;;;15.34;100.00
12195;BME280;27023;42.680;23.132;2022-07-09T06:31:47;92132.66;;;15.35;100.00
12195;BME280;27023;42.680;23.132;2022-07-09T06:34:14;92137.00;;;15.72;100.00
12195;BME280;27023;42.680;23.132;2022-07-09T06:36:40;92134.03;;;15.91;100.00
12195;BME280;27023;42.680;23.132;2022-07-09T06:39:09;92132.88;;;15.85;100.00
12195;BME280;27023;42.680;23.132;2022-07-09T06:41:53;92135.94;;;16.01;100.00
12195;BME280;27023;42.680;23.132;2022-07-09T06:44:21;92137.81;;;15.83;100.00
12195;BME280;27023;42.680;23.132;2022-07-09T06:46:48;92144.28;;;15.96;100.00
12195;BME280;27023;42.680;23.132;2022-07-09T06:49:15;92138.97;;;15.96;100.00
12195;BME280;27023;42.680;23.132;2022-07-09T06:51:41;92143.13;;;15.94;100.00
12195;BME280;27023;42.680;23.132;2022-07-09T06:54:09;92142.09;;;15.25;100.00
12195;BME280;27023;42.680;23.132;2022-07-09T06:56:35;92138.88;;;15.64;100.00
12195;BME280;27023;42.680;23.132;2022-07-09T06:59:02;92147.88;;;15.42;100.00
12195;BME280;27023;42.680;23.132;2022-07-09T07:01:30;92142.69;;;15.67;100.00
12195;BME280;27023;42.680;23.132;2022-07-09T07:03:57;92134.00;;;15.77;100.00
12195;BME280;27023;42.680;23.132;2022-07-09T07:06:24;92135.38;;;15.49;100.00
12195;BME280;27023;42.680;23.132;2022-07-09T07:08:50;92143.06;;;15.69;100.00
12195;BME280;27023;42.680;23.132;2022-07-09T07:11:17;92138.44;;;15.55;100.00
12195;BME280;27023;42.680;23.132;2022-07-09T07:13:44;92151.06;;;15.69;100.00
12195;BME280;27023;42.680;23.132;2022-07-09T07:16:10;92146.50;;;15.76;100.00
12195;BME280;27023;42.680;23.132;2022-07-09T07:18:38;92147.66;;;15.79;100.00
12195;BME280;27023;42.680;23.132;2022-07-09T07:21:05;92149.97;;;15.87;100.00
12195;BME280;27023;42.680;23.132;2022-07-09T07:23:32;92146.56;;;16.01;100.00
12195;BME280;27023;42.680;23.132;2022-07-09T07:25:58;92150.75;;;16.09;100.00
12195;BME280;27023;42.680;23.132;2022-07-09T07:28:25;92151.47;;;15.78;100.00
12195;BME280;27023;42.680;23.132;2022-07-09T07:30:52;92153.00;;;15.89;100.00
12195;BME280;27023;42.680;23.132;2022-07-09T07:33:19;92152.25;;;15.96;100.00
12195;BME280;27023;42.680;23.132;2022-07-09T07:35:47;92156.41;;;15.90;100.00
12195;BME280;27023;42.680;23.132;2022-07-09T07:38:14;92151.88;;;16.01;100.00
12195;BME280;27023;42.680;23.132;2022-07-09T07:40:41;92147.66;;;15.82;100.00
12195;BME280;27023;42.680;23.132;2022-07-09T07:43:09;92146.53;;;15.83;100.00
12195;BME280;27023;42.680;23.132;2022-07-09T07:45:37;92152.28;;;16.10;100.00
12195;BME280;27023;42.680;23.132;2022-07-09T07:48:04;92158.00;;;16.19;100.00
12195;BME280;27023;42.680;23.132;2022-07-09T07:50:31;92155.34;;;16.27;100.00
12195;BME280;27023;42.680;23.132;2022-07-09T07:53:02;92152.66;;;16.09;100.00
12195;BME280;27023;42.680;23.132;2022-07-09T07:55:28;92150.31;;;15.79;100.00
12195;BME280;27023;42.680;23.132;2022-07-09T07:57:55;92149.25;;;16.19;100.00
12195;BME280;27023;42.680;23.132;2022-07-09T08:00:22;92146.22;;;16.35;100.00
12195;BME280;27023;42.680;23.132;2022-07-09T08:02:48;92142.47;;;16.50;100.00
12195;BME280;27023;42.680;23.132;2022-07-09T08:05:15;92150.06;;;16.55;100.00
12195;BME280;27023;42.680;23.132;2022-07-09T08:07:42;92147.78;;;16.36;100.00
12195;BME280;27023;42.680;23.132;2022-07-09T08:10:10;92151.19;;;16.50;100.00
12195;BME280;27023;42.680;23.132;2022-07-09T08:12:37;92147.00;;;16.39;100.00
12195;BME280;27023;42.680;23.132;2022-07-09T08:15:04;92152.34;;;16.46;100.00
12195;BME280;27023;42.680;23.132;2022-07-09T08:17:31;92147.00;;;16.42;100.00
12195;BME280;27023;42.680;23.132;2022-07-09T08:19:58;92142.06;;;16.37;100.00
12195;BME280;27023;42.680;23.132;2022-07-09T08:22:25;92143.22;;;16.36;100.00
12195;BME280;27023;42.680;23.132;2022-07-09T08:24:51;92149.28;;;16.40;100.00
12195;BME280;27023;42.680;23.132;2022-07-09T08:27:19;92145.50;;;16.48;100.00
12195;BME280;27023;42.680;23.132;2022-07-09T08:29:46;92143.59;;;16.49;100.00
12195;BME280;27023;42.680;23.132;2022-07-09T08:32:14;92140.91;;;16.24;100.00
12195;BME280;27023;42.680;23.132;2022-07-09T08:34:40;92139.34;;;16.02;100.00
12195;BME280;27023;42.680;23.132;2022-07-09T08:37:07;92148.41;;;15.79;100.00
12195;BME280;27023;42.680;23.132;2022-07-09T08:39:34;92150.00;;;16.19;100.00
12195;BME280;27023;42.680;23.132;2022-07-09T08:42:02;92151.91;;;16.26;100.00
12195;BME280;27023;42.680;23.132;2022-07-09T08:44:32;92155.34;;;16.34;100.00
12195;BME280;27023;42.680;23.132;2022-07-09T08:47:01;92158.41;;;16.36;100.00
12195;BME280;27023;42.680;23.132;2022-07-09T08:49:28;92150.81;;;16.38;100.00
12195;BME280;27023;42.680;23.132;2022-07-09T08:51:55;92147.41;;;16.37;100.00
12195;BME280;27023;42.680;23.132;2022-07-09T08:54:22;92162.97;;;16.35;100.00
12195;BME280;27023;42.680;23.132;2022-07-09T08:56:50;92164.13;;;16.38;100.00
12195;BME280;27023;42.680;23.132;2022-07-09T08:59:17;92164.88;;;16.38;100.00
12195;BME280;27023;42.680;23.132;2022-07-09T09:01:45;92158.00;;;16.19;100.00
12195;BME280;27023;42.680;23.132;2022-07-09T09:04:12;92161.06;;;16.39;100.00
12195;BME280;27023;42.680;23.132;2022-07-09T09:06:39;92167.16;;;16.40;100.00
12195;BME280;27023;42.680;23.132;2022-07-09T09:09:07;92163.31;;;16.19;100.00
12195;BME280;27023;42.680;23.132;2022-07-09T09:11:36;92162.59;;;16.37;100.00
12195;BME280;27023;42.680;23.132;2022-07-09T09:14:03;92157.66;;;16.53;100.00
12195;BME280;27023;42.680;23.132;2022-07-09T09:16:30;92173.22;;;16.37;100.00
12195;BME280;27023;42.680;23.132;2022-07-09T09:18:58;92162.59;;;16.51;100.00
12195;BME280;27023;42.680;23.132;2022-07-09T09:21:26;92161.75;;;16.04;100.00
12195;BME280;27023;42.680;23.132;2022-07-09T09:23:54;92170.91;;;16.17;100.00
12195;BME280;27023;42.680;23.132;2022-07-09T09:26:22;92156.91;;;16.49;100.00
12195;BME280;27023;42.680;23.132;2022-07-09T09:28:50;92174.38;;;16.46;100.00
12195;BME280;27023;42.680;23.132;2022-07-09T09:31:22;92164.13;;;16.48;100.00
12195;BME280;27023;42.680;23.132;2022-07-09T09:33:49;92170.19;;;16.56;100.00
12195;BME280;27023;42.680;23.132;2022-07-09T09:36:29;92165.25;;;16.58;100.00
12195;BME280;27023;42.680;23.132;2022-07-09T09:39:10;92169.81;;;16.54;100.00
12195;BME280;27023;42.680;23.132;2022-07-09T09:41:37;92164.50;;;16.58;100.00
12195;BME280;27023;42.680;23.132;2022-07-09T09:44:06;92165.63;;;16.60;100.00
12195;BME280;27023;42.680;23.132;2022-07-09T09:46:34;92152.34;;;16.53;100.00
12195;BME280;27023;42.680;23.132;2022-07-09T09:49:02;92166.03;;;16.69;100.00
12195;BME280;27023;42.680;23.132;2022-07-09T09:51:35;92168.72;;;16.69;100.00
12195;BME280;27023;42.680;23.132;2022-07-09T09:54:03;92159.56;;;16.49;100.00
12195;BME280;27023;42.680;23.132;2022-07-09T09:56:30;92164.47;;;16.33;100.00
12195;BME280;27023;42.680;23.132;2022-07-09T09:58:58;92162.63;;;16.65;100.00
12195;BME280;27023;42.680;23.132;2022-07-09T10:01:26;92164.13;;;16.59;100.00
12195;BME280;27023;42.680;23.132;2022-07-09T10:03:53;92164.13;;;16.59;100.00
12195;BME280;27023;42.680;23.132;2022-07-09T10:06:20;92165.25;;;16.44;100.00
12195;BME280;27023;42.680;23.132;2022-07-09T10:08:49;92162.97;;;16.42;100.00
12195;BME280;27023;42.680;23.132;2022-07-09T10:11:15;92155.38;;;16.51;100.00
12195;BME280;27023;42.680;23.132;2022-07-09T10:13:53;92161.81;;;16.33;100.00
12195;BME280;27023;42.680;23.132;2022-07-09T10:16:35;92150.75;;;15.95;100.00
12195;BME280;27023;42.680;23.132;2022-07-09T10:19:03;92168.63;;;16.19;100.00
12195;BME280;27023;42.680;23.132;2022-07-09T10:21:33;92161.41;;;16.16;100.00
12195;BME280;27023;42.680;23.132;2022-07-09T10:24:02;92163.59;;;15.72;100.00
12195;BME280;27023;42.680;23.132;2022-07-09T10:26:43;92166.94;;;15.58;100.00
12195;BME280;27023;42.680;23.132;2022-07-09T10:29:30;92165.53;;;15.96;100.00
12195;BME280;27023;42.680;23.132;2022-07-09T10:31:57;92164.06;;;16.16;100.00
12195;BME280;27023;42.680;23.132;2022-07-09T10:34:53;92169.41;;;16.31;100.00
12195;BME280;27023;42.680;23.132;2022-07-09T10:37:34;92171.25;;;16.05;100.00
12195;BME280;27023;42.680;23.132;2022-07-09T10:40:15;92179.38;;;15.47;100.00
12195;BME280;27023;42.680;23.132;2022-07-09T10:42:43;92175.34;;;15.74;100.00
12195;BME280;27023;42.680;23.132;2022-07-09T10:45:24;92178.47;;;16.01;100.00
12195;BME280;27023;42.680;23.132;2022-07-09T10:47:55;92182.94;;;15.72;100.00
12195;BME280;27023;42.680;23.132;2022-07-09T10:50:22;92183.41;;;15.96;100.00
12195;BME280;27023;42.680;23.132;2022-07-09T10:52:48;92197.06;;;15.98;100.00
12195;BME280;27023;42.680;23.132;2022-07-09T10:55:17;92194.78;;;15.96;100.00
12195;BME280;27023;42.680;23.132;2022-07-09T10:57:45;92188.72;;;15.99;100.00
12195;BME280;27023;42.680;23.132;2022-07-09T11:00:14;92191.69;;;15.73;100.00
12195;BME280;27023;42.680;23.132;2022-07-09T11:02:54;92198.56;;;15.88;100.00
12195;BME280;27023;42.680;23.132;2022-07-09T11:05:21;92190.13;;;15.61;100.00
12195;BME280;27023;42.680;23.132;2022-07-09T11:07:56;92187.16;;;15.08;100.00
12195;BME280;27023;42.680;23.132;2022-07-09T11:10:25;92182.34;;;15.31;100.00
12195;BME280;27023;42.680;23.132;2022-07-09T11:12:53;92193.72;;;15.32;100.00
12195;BME280;27023;42.680;23.132;2022-07-09T11:15:21;92191.31;;;15.09;100.00
12195;BME280;27023;42.680;23.132;2022-07-09T11:17:55;92192.59;;;14.74;100.00
12195;BME280;27023;42.680;23.132;2022-07-09T11:20:22;92186.75;;;15.06;100.00
12195;BME280;27023;42.680;23.132;2022-07-09T11:22:49;92197.13;;;14.74;100.00
12195;BME280;27023;42.680;23.132;2022-07-09T11:25:16;92191.97;;;14.91;100.00
12195;BME280;27023;42.680;23.132;2022-07-09T11:27:44;92189.94;;;14.78;100.00
12195;BME280;27023;42.680;23.132;2022-07-09T11:30:12;92194.16;;;14.82;100.00
12195;BME280;27023;42.680;23.132;2022-07-09T11:32:40;92195.09;;;15.08;100.00
12195;BME280;27023;42.680;23.132;2022-07-09T11:35:07;92184.56;;;15.22;100.00
12195;BME280;27023;42.680;23.132;2022-07-09T11:37:34;92193.00;;;15.38;100.00
12195;BME280;27023;42.680;23.132;2022-07-09T11:40:01;92187.63;;;15.24;100.00
12195;BME280;27023;42.680;23.132;2022-07-09T11:42:27;92183.88;;;15.32;100.00
12195;BME280;27023;42.680;23.132;2022-07-09T11:44:57;92182.22;;;15.10;100.00
12195;BME280;27023;42.680;23.132;2022-07-09T11:47:32;92187.56;;;15.13;100.00
12195;BME280;27023;42.680;23.132;2022-07-09T11:50:04;92188.47;;;15.42;100.00
12195;BME280;27023;42.680;23.132;2022-07-09T11:52:32;92189.44;;;15.09;100.00
12195;BME280;27023;42.680;23.132;2022-07-09T11:54:59;92179.91;;;15.05;100.00
12195;BME280;27023;42.680;23.132;2022-07-09T11:57:27;92186.16;;;14.75;100.00
12195;BME280;27023;42.680;23.132;2022-07-09T11:59:57;92178.84;;;15.13;100.00
12195;BME280;27023;42.680;23.132;2022-07-09T12:02:30;92179.44;;;14.88;100.00
12195;BME280;27023;42.680;23.132;2022-07-09T12:04:58;92182.34;;;15.31;100.00
12195;BME280;27023;42.680;23.132;2022-07-09T12:07:25;92182.50;;;15.60;100.00
12195;BME280;27023;42.680;23.132;2022-07-09T12:09:58;92187.75;;;15.52;100.00
12195;BME280;27023;42.680;23.132;2022-07-09T12:12:25;92186.19;;;15.41;100.00
12195;BME280;27023;42.680;23.132;2022-07-09T12:14:52;92180.84;;;15.37;100.00
12195;BME280;27023;42.680;23.132;2022-07-09T12:17:22;92177.34;;;15.19;100.00
12195;BME280;27023;42.680;23.132;2022-07-09T12:19:49;92177.44;;;15.40;100.00
12195;BME280;27023;42.680;23.132;2022-07-09T12:22:17;92178.53;;;15.32;100.00
12195;BME280;27023;42.680;23.132;2022-07-09T12:24:44;92169.41;;;15.26;100.00
12195;BME280;27023;42.680;23.132;2022-07-09T12:27:11;92170.06;;;15.05;100.00
12195;BME280;27023;42.680;23.132;2022-07-09T12:29:38;92168.69;;;15.33;100.00
12195;BME280;27023;42.680;23.132;2022-07-09T12:32:05;92163.97;;;15.70;100.00
12195;BME280;27023;42.680;23.132;2022-07-09T12:34:33;92161.31;;;15.74;100.00
12195;BME280;27023;42.680;23.132;2022-07-09T12:37:00;92169.72;;;15.97;100.00
12195;BME280;27023;42.680;23.132;2022-07-09T12:39:27;92184.28;;;15.41;100.00
12195;BME280;27023;42.680;23.132;2022-07-09T12:41:54;92180.97;;;15.58;100.00
12195;BME280;27023;42.680;23.132;2022-07-09T12:44:21;92184.03;;;15.61;100.00